Time;durP1;ratioP1;P1;durP2;ratioP2;P2;SDS_P1;SDS_P2;PMS_P1;PMS_P2;Temp;Humidity;BMP_temperature;BMP_pressure;BME280_temperature;BME280_humidity;BME280_pressure;Samples;Min_cycle;Max_cycle;Signal;HPM_P1;HPM_P2
2023/03/10 00:02:01;;;;;;;;;;;;;;;6.80;71.44;98629.63;5033823;28;20027;-69
2023/03/10 00:04:26;;;;;;;;;;;;;;;6.81;71.46;98634.72;5032473;28;19979;-67
2023/03/10 00:06:52;;;;;;;;;;;;;;;6.81;71.58;98634.72;5032143;28;20377;-68
2023/03/10 00:09:17;;;;;;;;;;;;;;;6.82;71.66;98635.53;5030182;28;20266;-67
2023/03/10 00:11:42;;;;;;;;;;;;;;;6.82;71.46;98636.31;5026020;28;19927;-69
2023/03/10 00:14:07;;;;;;;;;;;;;;;6.82;71.46;98632.84;5021445;28;20424;-67
2023/03/10 00:16:33;;;;;;;;;;;;;;;6.82;71.69;98628.28;5030891;28;19916;-71
2023/03/10 00:18:58;;;;;;;;;;;;;;;6.83;71.65;98624.53;5031614;28;19921;-68
2023/03/10 00:21:24;;;;;;;;;;;;;;;6.83;71.71;98624.53;5017496;28;20290;-68
2023/03/10 00:23:53;;;;;;;;;;;;;;;6.84;71.79;98625.34;5013203;28;19913;-69
2023/03/10 00:26:19;;;;;;;;;;;;;;;6.85;71.52;98618.88;5023075;28;19917;-68
2023/03/10 00:28:44;;;;;;;;;;;;;;;6.85;71.73;98621.56;5017626;28;19914;-68
2023/03/10 00:31:11;;;;;;;;;;;;;;;6.86;71.95;98623.19;5016974;28;19917;-69
2023/03/10 00:33:37;;;;;;;;;;;;;;;6.87;71.49;98622.91;5014554;28;20012;-68
2023/03/10 00:36:13;;;;;;;;;;;;;;;6.87;71.85;98620.22;5023574;28;20008;-69
2023/03/10 00:38:39;;;;;;;;;;;;;;;6.87;71.88;98616.75;5026859;28;19925;-68
2023/03/10 00:41:05;;;;;;;;;;;;;;;6.88;71.84;98621.03;5023607;28;20295;-68
2023/03/10 00:43:31;;;;;;;;;;;;;;;6.89;71.78;98619.97;5027215;28;20006;-68
2023/03/10 00:45:57;;;;;;;;;;;;;;;6.88;71.77;98621.84;5022137;28;19949;-69
2023/03/10 00:48:22;;;;;;;;;;;;;;;6.90;72.01;98621.56;5026299;28;19921;-67
2023/03/10 00:50:48;;;;;;;;;;;;;;;6.90;71.83;98624.25;5031332;28;20424;-68
2023/03/10 00:53:13;;;;;;;;;;;;;;;6.90;71.92;98624.25;5023406;28;20012;-70
2023/03/10 00:55:38;;;;;;;;;;;;;;;6.92;71.86;98619.41;5028863;28;20003;-67
2023/03/10 00:58:04;;;;;;;;;;;;;;;6.92;71.82;98619.41;5024958;28;19921;-68
2023/03/10 01:00:29;;;;;;;;;;;;;;;6.92;71.78;98620.22;5029854;28;19921;-68
2023/03/10 01:02:54;;;;;;;;;;;;;;;6.93;71.89;98616.47;5024791;28;20262;-67
2023/03/10 01:05:20;;;;;;;;;;;;;;;6.93;71.73;98616.47;5026290;28;19928;-69
2023/03/10 01:07:45;;;;;;;;;;;;;;;6.94;71.77;98617.28;5012485;28;20042;-68
2023/03/10 01:10:10;;;;;;;;;;;;;;;6.94;71.79;98609.22;5031962;28;19928;-68
2023/03/10 01:12:36;;;;;;;;;;;;;;;6.96;71.99;98611.63;5026447;28;19929;-68
2023/03/10 01:15:01;;;;;;;;;;;;;;;6.98;71.72;98604.09;5017865;28;19924;-68
2023/03/10 01:17:26;;;;;;;;;;;;;;;6.97;71.86;98610.56;5012288;28;19918;-67
2023/03/10 01:19:51;;;;;;;;;;;;;;;6.99;71.88;98605.72;5025307;28;20011;-69
2023/03/10 01:22:17;;;;;;;;;;;;;;;7.00;71.91;98610.00;5028971;28;19920;-68
2023/03/10 01:24:42;;;;;;;;;;;;;;;7.02;71.83;98607.84;5029793;28;19925;-67
2023/03/10 01:27:07;;;;;;;;;;;;;;;7.02;71.99;98611.34;5014967;28;19929;-69
2023/03/10 01:29:32;;;;;;;;;;;;;;;7.03;71.76;98612.97;5025310;28;20285;-69
2023/03/10 01:31:58;;;;;;;;;;;;;;;7.05;71.79;98610.00;5029521;28;19925;-68
2023/03/10 01:34:23;;;;;;;;;;;;;;;7.06;71.89;98595.50;5034042;28;19925;-67
2023/03/10 01:36:48;;;;;;;;;;;;;;;7.08;71.94;98596.03;5024549;28;19917;-69
2023/03/10 01:39:13;;;;;;;;;;;;;;;7.09;72.11;98584.22;5025379;28;19921;-68
2023/03/10 01:41:39;;;;;;;;;;;;;;;7.11;72.33;98587.44;5029387;28;19991;-69
2023/03/10 01:44:11;;;;;;;;;;;;;;;7.11;72.18;98587.44;5034087;28;19956;-69
2023/03/10 01:46:37;;;;;;;;;;;;;;;7.13;72.21;98580.72;5035336;28;19916;-68
2023/03/10 01:49:15;;;;;;;;;;;;;;;7.14;72.04;98582.31;5023732;28;20372;-68
2023/03/10 01:51:42;;;;;;;;;;;;;;;7.17;72.33;98574.81;5034023;28;19971;-68
2023/03/10 01:54:10;;;;;;;;;;;;;;;7.18;72.37;98587.13;5028069;28;19918;-68
2023/03/10 01:56:36;;;;;;;;;;;;;;;7.17;72.24;98588.22;5022270;28;19970;-69
2023/03/10 01:59:02;;;;;;;;;;;;;;;7.20;71.88;98580.41;5017022;28;19925;-68
2023/03/10 02:01:27;;;;;;;;;;;;;;;7.20;72.02;98580.41;5023731;28;19946;-68
2023/03/10 02:04:12;;;;;;;;;;;;;;;7.22;71.96;98580.16;5022870;28;19923;-68
2023/03/10 02:06:40;;;;;;;;;;;;;;;7.23;71.92;98577.22;5017091;28;19917;-67
2023/03/10 02:09:07;;;;;;;;;;;;;;;7.25;72.10;98566.97;5030458;28;19968;-68
2023/03/10 02:11:33;;;;;;;;;;;;;;;7.27;72.06;98570.19;5020982;28;20389;-67
2023/03/10 02:14:00;;;;;;;;;;;;;;;7.27;71.82;98567.50;5026218;28;19967;-68
2023/03/10 02:16:25;;;;;;;;;;;;;;;7.29;71.87;98565.38;5033073;28;19913;-70
2023/03/10 02:18:50;;;;;;;;;;;;;;;7.31;71.88;98551.66;5033506;28;20354;-69
2023/03/10 02:21:22;;;;;;;;;;;;;;;7.31;71.97;98547.09;5026557;28;19944;-68
2023/03/10 02:24:02;;;;;;;;;;;;;;;7.33;71.97;98544.13;5033038;28;20403;-69
2023/03/10 02:26:36;;;;;;;;;;;;;;;7.35;72.01;98528.53;5019979;28;20252;-69
2023/03/10 02:29:03;;;;;;;;;;;;;;;7.36;72.08;98525.59;5031815;28;19960;-69
2023/03/10 02:31:29;;;;;;;;;;;;;;;7.37;72.44;98521.81;5015807;28;19917;-68
2023/03/10 02:33:54;;;;;;;;;;;;;;;7.40;72.33;98525.81;5018729;28;20369;-68
2023/03/10 02:36:21;;;;;;;;;;;;;;;7.41;72.25;98523.94;5025489;28;19923;-70
2023/03/10 02:38:46;;;;;;;;;;;;;;;7.43;72.34;98521.78;5032162;28;20403;-68
2023/03/10 02:41:24;;;;;;;;;;;;;;;7.44;72.64;98518.84;5025779;28;19956;-68
2023/03/10 02:43:49;;;;;;;;;;;;;;;7.46;72.44;98515.84;5018824;28;19917;-69
2023/03/10 02:46:15;;;;;;;;;;;;;;;7.47;72.41;98514.78;5027513;28;19924;-68
2023/03/10 02:48:40;;;;;;;;;;;;;;;7.48;72.67;98519.06;5022994;28;20475;-69
2023/03/10 02:51:08;;;;;;;;;;;;;;;7.49;72.60;98509.94;5022860;28;19917;-69
2023/03/10 02:53:33;;;;;;;;;;;;;;;7.51;72.49;98516.66;5019647;28;20011;-68
2023/03/10 02:55:59;;;;;;;;;;;;;;;7.52;72.61;98517.44;5027539;28;20017;-69
2023/03/10 02:58:25;;;;;;;;;;;;;;;7.54;72.58;98505.34;5033419;28;20373;-68
2023/03/10 03:00:51;;;;;;;;;;;;;;;7.55;72.80;98500.78;5022588;28;19921;-69
2023/03/10 03:03:17;;;;;;;;;;;;;;;7.56;72.67;98505.88;5015948;28;20332;-68
2023/03/10 03:05:43;;;;;;;;;;;;;;;7.57;72.47;98502.09;5032787;28;20400;-68
2023/03/10 03:08:08;;;;;;;;;;;;;;;7.58;72.57;98498.34;5027642;28;19921;-68
2023/03/10 03:10:34;;;;;;;;;;;;;;;7.59;72.80;98494.56;5026076;28;19928;-68
2023/03/10 03:12:59;;;;;;;;;;;;;;;7.61;72.67;98499.69;5026245;28;20369;-67
2023/03/10 03:15:25;;;;;;;;;;;;;;;7.62;72.77;98495.09;5022728;28;19921;-69
2023/03/10 03:17:50;;;;;;;;;;;;;;;7.62;72.64;98498.59;5030401;28;19951;-68
2023/03/10 03:20:16;;;;;;;;;;;;;;;7.64;72.85;98480.31;5030013;28;19921;-68
2023/03/10 03:22:44;;;;;;;;;;;;;;;7.65;72.31;98498.03;5025698;28;20285;-69
2023/03/10 03:25:11;;;;;;;;;;;;;;;7.66;72.81;98490.75;5025149;28;19914;-68
2023/03/10 03:27:39;;;;;;;;;;;;;;;7.66;72.88;98483.53;5016519;28;19959;-69
2023/03/10 03:30:08;;;;;;;;;;;;;;;7.67;72.54;98485.13;5018675;28;19917;-69
2023/03/10 03:32:34;;;;;;;;;;;;;;;7.69;72.61;98482.16;5014080;28;19940;-69
2023/03/10 03:34:59;;;;;;;;;;;;;;;7.70;72.66;98489.13;5013925;28;19914;-70
2023/03/10 03:37:25;;;;;;;;;;;;;;;7.72;72.67;98486.97;5013689;28;19921;-69
2023/03/10 03:39:50;;;;;;;;;;;;;;;7.73;72.72;98488.56;5017661;28;19922;-67
2023/03/10 03:42:15;;;;;;;;;;;;;;;7.73;72.77;98486.69;5013895;28;19918;-68
2023/03/10 03:44:41;;;;;;;;;;;;;;;7.73;72.71;98484.00;5013670;28;19957;-67
2023/03/10 03:47:07;;;;;;;;;;;;;;;7.75;72.59;98484.53;5018991;28;19924;-69
2023/03/10 03:49:34;;;;;;;;;;;;;;;7.76;73.00;98480.78;5015113;28;20398;-74
2023/03/10 03:51:59;;;;;;;;;;;;;;;7.78;72.73;98491.22;5025717;28;20301;-70
2023/03/10 03:54:25;;;;;;;;;;;;;;;7.78;72.72;98478.56;5022247;28;20373;-68
2023/03/10 03:56:50;;;;;;;;;;;;;;;7.80;72.96;98478.31;5019276;28;19921;-68
2023/03/10 03:59:15;;;;;;;;;;;;;;;7.80;72.83;98478.31;5028510;28;20381;-69
2023/03/10 04:01:40;;;;;;;;;;;;;;;7.83;72.93;98471.56;5021881;28;20497;-69
2023/03/10 04:04:06;;;;;;;;;;;;;;;7.84;73.02;98475.84;5026110;28;19927;-67
2023/03/10 04:06:31;;;;;;;;;;;;;;;7.85;72.99;98474.78;5033664;28;19924;-68
2023/03/10 04:08:56;;;;;;;;;;;;;;;7.86;73.08;98471.00;5020481;28;19961;-68
2023/03/10 04:11:21;;;;;;;;;;;;;;;7.86;73.08;98468.31;5018780;28;19921;-69
2023/03/10 04:13:46;;;;;;;;;;;;;;;7.88;73.19;98463.47;5018836;28;19921;-68
2023/03/10 04:16:12;;;;;;;;;;;;;;;7.89;73.09;98459.72;5031429;28;19952;-69
2023/03/10 04:18:37;;;;;;;;;;;;;;;7.90;73.31;98466.69;5023640;28;19928;-69
2023/03/10 04:21:02;;;;;;;;;;;;;;;7.91;73.31;98465.59;5032168;28;20021;-69
2023/03/10 04:23:28;;;;;;;;;;;;;;;7.92;73.15;98475.28;5029333;28;20629;-70
2023/03/10 04:25:53;;;;;;;;;;;;;;;7.93;73.39;98472.28;5012135;28;19917;-70
2023/03/10 04:28:18;;;;;;;;;;;;;;;7.93;73.14;98466.13;5027439;28;20419;-68
2023/03/10 04:30:44;;;;;;;;;;;;;;;7.94;73.48;98470.44;5030817;28;19921;-68
2023/03/10 04:33:10;;;;;;;;;;;;;;;7.96;73.32;98474.44;5031574;28;19921;-68
2023/03/10 04:35:40;;;;;;;;;;;;;;;7.96;73.36;98460.19;5017505;28;19944;-68
2023/03/10 04:38:05;;;;;;;;;;;;;;;7.98;73.24;98469.56;5017464;28;19921;-68
2023/03/10 04:40:30;;;;;;;;;;;;;;;7.98;73.42;98460.69;5025124;28;19925;-69
2023/03/10 04:42:56;;;;;;;;;;;;;;;7.99;73.45;98465.81;5031581;28;19917;-69
2023/03/10 04:45:21;;;;;;;;;;;;;;;8.00;73.16;98461.22;5024681;28;19921;-68
2023/03/10 04:47:46;;;;;;;;;;;;;;;8.01;73.38;98466.34;5016424;28;20308;-69
2023/03/10 04:50:16;;;;;;;;;;;;;;;8.02;73.29;98459.06;5023179;28;20017;-68
2023/03/10 04:52:41;;;;;;;;;;;;;;;8.03;73.36;98460.66;5021827;28;19921;-69
2023/03/10 04:55:06;;;;;;;;;;;;;;;8.03;73.44;98452.59;5030109;28;20376;-68
2023/03/10 04:57:32;;;;;;;;;;;;;;;8.05;73.41;98455.81;5024606;28;19921;-68
2023/03/10 04:59:58;;;;;;;;;;;;;;;8.05;73.24;98455.00;5024015;28;20277;-68
2023/03/10 05:02:23;;;;;;;;;;;;;;;8.07;73.23;98450.94;5023551;28;20365;-68
2023/03/10 05:04:48;;;;;;;;;;;;;;;8.08;73.07;98449.84;5020041;28;19952;-68
2023/03/10 05:07:14;;;;;;;;;;;;;;;8.09;73.29;98454.16;5026993;28;19917;-68
2023/03/10 05:09:39;;;;;;;;;;;;;;;8.10;73.14;98452.28;5028966;28;19921;-75
2023/03/10 05:12:05;;;;;;;;;;;;;;;8.10;73.21;98444.22;5019900;28;19921;-68
2023/03/10 05:14:30;;;;;;;;;;;;;;;8.10;73.21;98455.75;5028660;28;20008;-67
2023/03/10 05:16:56;;;;;;;;;;;;;;;8.13;73.21;98451.72;5012424;28;19922;-68
2023/03/10 05:19:21;;;;;;;;;;;;;;;8.13;72.95;98449.00;5018773;28;20004;-68
2023/03/10 05:21:46;;;;;;;;;;;;;;;8.13;73.25;98446.31;5014985;28;19928;-67
2023/03/10 05:24:12;;;;;;;;;;;;;;;8.14;73.12;98450.59;5028597;28;20349;-68
2023/03/10 05:26:37;;;;;;;;;;;;;;;8.14;73.28;98453.28;5016895;28;19917;-68
2023/03/10 05:29:02;;;;;;;;;;;;;;;8.14;73.15;98456.81;5019830;28;19921;-67
2023/03/10 05:31:28;;;;;;;;;;;;;;;8.15;73.27;98463.78;5030740;28;19924;-68
2023/03/10 05:33:53;;;;;;;;;;;;;;;8.15;73.12;98466.47;5021630;28;20070;-68
2023/03/10 05:36:18;;;;;;;;;;;;;;;8.16;73.30;98469.97;5030283;28;19971;-68
2023/03/10 05:38:44;;;;;;;;;;;;;;;8.17;73.29;98467.00;5024406;28;20350;-69
2023/03/10 05:41:10;;;;;;;;;;;;;;;8.16;73.04;98465.38;5024246;28;20060;-68
2023/03/10 05:43:35;;;;;;;;;;;;;;;8.18;73.24;98459.72;5022956;28;19917;-70
2023/03/10 05:46:01;;;;;;;;;;;;;;;8.18;73.27;98459.72;5028860;28;19921;-68
2023/03/10 05:48:26;;;;;;;;;;;;;;;8.19;73.33;98462.16;5024428;28;19917;-69
2023/03/10 05:51:02;;;;;;;;;;;;;;;8.20;73.18;98461.06;5018325;28;19921;-68
2023/03/10 05:53:28;;;;;;;;;;;;;;;8.21;73.24;98453.78;5019378;28;21974;-68
2023/03/10 05:55:53;;;;;;;;;;;;;;;8.21;72.98;98457.28;5021958;28;19929;-69
2023/03/10 05:58:19;;;;;;;;;;;;;;;8.21;73.05;98462.66;5027887;28;19924;-69
2023/03/10 06:00:44;;;;;;;;;;;;;;;8.22;73.11;98466.94;5020110;28;19944;-73
2023/03/10 06:03:10;;;;;;;;;;;;;;;8.23;73.15;98471.22;5021830;28;19921;-68
2023/03/10 06:05:35;;;;;;;;;;;;;;;8.25;72.94;98470.97;5019551;28;20361;-67
2023/03/10 06:08:00;;;;;;;;;;;;;;;8.25;73.12;98470.97;5026590;28;19921;-68
2023/03/10 06:10:25;;;;;;;;;;;;;;;8.26;72.94;98469.06;5031009;28;19928;-69
2023/03/10 06:12:51;;;;;;;;;;;;;;;8.27;73.09;98468.00;5029527;28;19967;-68
2023/03/10 06:15:16;;;;;;;;;;;;;;;8.27;73.19;98463.41;5021871;28;20270;-69
2023/03/10 06:17:41;;;;;;;;;;;;;;;8.29;72.96;98472.00;5030334;28;19929;-68
2023/03/10 06:20:07;;;;;;;;;;;;;;;8.29;73.23;98452.34;5027897;28;19921;-68
2023/03/10 06:22:32;;;;;;;;;;;;;;;8.29;73.35;98463.94;5026466;28;20361;-69
2023/03/10 06:24:57;;;;;;;;;;;;;;;8.29;73.50;98461.25;5018200;28;19948;-68
2023/03/10 06:27:23;;;;;;;;;;;;;;;8.30;73.43;98468.22;5029533;28;19921;-70
2023/03/10 06:29:49;;;;;;;;;;;;;;;8.31;73.30;98463.63;5028877;28;19944;-67
2023/03/10 06:32:14;;;;;;;;;;;;;;;8.31;73.34;98467.13;5018366;28;19917;-69
2023/03/10 06:34:39;;;;;;;;;;;;;;;8.31;73.42;98477.88;5028328;28;19924;-69
2023/03/10 06:37:05;;;;;;;;;;;;;;;8.33;73.09;98483.00;5031326;28;19917;-67
2023/03/10 06:39:30;;;;;;;;;;;;;;;8.33;73.18;98480.31;5032087;28;19937;-69
2023/03/10 06:41:55;;;;;;;;;;;;;;;8.34;73.26;98481.91;5021797;28;19921;-68
2023/03/10 06:44:21;;;;;;;;;;;;;;;8.35;73.23;98464.69;5020506;28;19917;-67
2023/03/10 06:46:46;;;;;;;;;;;;;;;8.35;73.37;98475.44;5017403;28;19913;-66
2023/03/10 06:49:11;;;;;;;;;;;;;;;8.36;73.29;98471.66;5033696;28;19931;-67
2023/03/10 06:51:37;;;;;;;;;;;;;;;8.38;73.37;98466.81;5020396;28;19924;-69
2023/03/10 06:54:02;;;;;;;;;;;;;;;8.39;73.48;98468.41;5023243;28;19959;-69
2023/03/10 06:56:27;;;;;;;;;;;;;;;8.39;73.49;98465.72;5023292;28;19985;-67
2023/03/10 06:58:53;;;;;;;;;;;;;;;8.40;73.62;98478.13;5031777;28;20028;-72
2023/03/10 07:01:25;;;;;;;;;;;;;;;8.41;73.37;98471.66;5033679;28;20365;-68
2023/03/10 07:03:51;;;;;;;;;;;;;;;8.42;73.61;98473.25;5028424;28;20289;-68
2023/03/10 07:06:17;;;;;;;;;;;;;;;8.42;73.55;98479.44;5028238;28;20349;-70
2023/03/10 07:08:42;;;;;;;;;;;;;;;8.43;73.69;98478.34;5020553;28;19936;-68
2023/03/10 07:11:08;;;;;;;;;;;;;;;8.45;73.77;98480.75;5018111;28;20277;-68
2023/03/10 07:13:33;;;;;;;;;;;;;;;8.47;73.59;98480.47;5017128;28;19921;-72
2023/03/10 07:15:58;;;;;;;;;;;;;;;8.47;73.63;98480.47;5020493;28;19921;-68
2023/03/10 07:18:26;;;;;;;;;;;;;;;8.48;73.69;98480.19;5032624;28;19920;-68
2023/03/10 07:20:53;;;;;;;;;;;;;;;8.50;73.83;98486.09;5030990;28;19917;-73
2023/03/10 07:23:18;;;;;;;;;;;;;;;8.51;73.66;98481.50;5020828;28;19967;-68
2023/03/10 07:25:44;;;;;;;;;;;;;;;8.52;73.93;98483.13;5032380;28;20007;-70
2023/03/10 07:28:09;;;;;;;;;;;;;;;8.53;73.92;98490.91;5026740;28;19929;-67
2023/03/10 07:30:35;;;;;;;;;;;;;;;8.54;73.89;98483.63;5031279;28;20374;-67
2023/03/10 07:33:00;;;;;;;;;;;;;;;8.55;73.96;98486.03;5031757;28;20285;-69
2023/03/10 07:35:25;;;;;;;;;;;;;;;8.56;73.91;98490.31;5025827;28;19928;-69
2023/03/10 07:37:51;;;;;;;;;;;;;;;8.58;73.70;98493.53;5014098;28;20051;-69
2023/03/10 07:40:16;;;;;;;;;;;;;;;8.59;73.94;98503.22;5026432;28;20154;-69
2023/03/10 07:42:42;;;;;;;;;;;;;;;8.60;73.93;98504.03;5021051;28;19933;-68
2023/03/10 07:45:08;;;;;;;;;;;;;;;8.62;73.89;98499.16;5019033;28;19929;-68
2023/03/10 07:47:33;;;;;;;;;;;;;;;8.63;73.78;98490.78;5029811;28;20258;-70
2023/03/10 07:49:58;;;;;;;;;;;;;;;8.64;74.00;98500.50;5026198;28;20016;-69
2023/03/10 07:52:23;;;;;;;;;;;;;;;8.65;74.00;98494.00;5018122;28;19921;-68
2023/03/10 07:54:48;;;;;;;;;;;;;;;8.67;74.06;98501.81;5029399;28;19959;-67
2023/03/10 07:57:14;;;;;;;;;;;;;;;8.69;73.86;98502.31;5023825;28;19921;-69
2023/03/10 07:59:40;;;;;;;;;;;;;;;8.70;73.95;98498.53;5014523;28;19928;-68
2023/03/10 08:02:05;;;;;;;;;;;;;;;8.71;73.72;98491.25;5028713;28;19917;-68
2023/03/10 08:04:31;;;;;;;;;;;;;;;8.72;73.71;98500.94;5033682;28;20361;-70
2023/03/10 08:06:58;;;;;;;;;;;;;;;8.74;73.59;98494.16;5032482;28;19913;-68
2023/03/10 08:09:23;;;;;;;;;;;;;;;8.75;73.64;98497.69;5022506;28;19975;-69
2023/03/10 08:11:48;;;;;;;;;;;;;;;8.77;73.50;98496.31;5021535;28;20320;-70
2023/03/10 08:14:14;;;;;;;;;;;;;;;8.78;73.37;98497.13;5024785;28;20353;-69
2023/03/10 08:16:40;;;;;;;;;;;;;;;8.80;73.44;98492.25;5013658;28;19913;-68
2023/03/10 08:19:06;;;;;;;;;;;;;;;8.81;73.40;98493.84;5023914;28;20000;-69
2023/03/10 08:21:31;;;;;;;;;;;;;;;8.83;73.04;98502.44;5013076;28;19920;-69
2023/03/10 08:23:57;;;;;;;;;;;;;;;8.83;73.09;98497.84;5013113;28;19924;-72
2023/03/10 08:26:22;;;;;;;;;;;;;;;8.85;73.01;98495.69;5014735;28;19991;-69
2023/03/10 08:28:47;;;;;;;;;;;;;;;8.86;72.90;98499.97;5031603;28;19960;-70
2023/03/10 08:31:14;;;;;;;;;;;;;;;8.88;73.08;98497.00;5028129;28;20304;-68
2023/03/10 08:33:40;;;;;;;;;;;;;;;8.89;72.92;98495.91;5022316;28;19917;-67
2023/03/10 08:36:12;;;;;;;;;;;;;;;8.90;72.75;98494.84;5023072;28;20016;-67
2023/03/10 08:38:38;;;;;;;;;;;;;;;8.92;72.78;98503.44;5030821;28;19924;-69
2023/03/10 08:41:10;;;;;;;;;;;;;;;8.93;72.79;98493.47;5017593;28;20222;-67
2023/03/10 08:43:35;;;;;;;;;;;;;;;8.95;72.73;98493.97;5014366;28;19968;-68
2023/03/10 08:46:01;;;;;;;;;;;;;;;8.96;72.57;98493.66;5016868;28;20358;-68
2023/03/10 08:48:26;;;;;;;;;;;;;;;8.98;72.49;98493.41;5011771;28;19926;-68
2023/03/10 08:50:51;;;;;;;;;;;;;;;8.98;72.38;98499.56;5019097;28;20366;-68
2023/03/10 08:53:16;;;;;;;;;;;;;;;9.00;72.18;98499.31;5017225;28;19917;-67
2023/03/10 08:55:42;;;;;;;;;;;;;;;9.00;72.41;98496.59;5024026;28;19931;-67
2023/03/10 08:58:07;;;;;;;;;;;;;;;9.02;72.37;98492.53;5029509;28;19923;-68
2023/03/10 09:00:32;;;;;;;;;;;;;;;9.05;72.56;98497.34;5031446;28;19921;-80
2023/03/10 09:02:58;;;;;;;;;;;;;;;9.13;72.61;98489.72;5030752;28;20263;-78
2023/03/10 09:05:23;;;;;;;;;;;;;;;9.23;72.56;98495.78;5012729;28;19914;-81
2023/03/10 09:07:48;;;;;;;;;;;;;;;9.32;73.08;98487.84;5012840;28;19921;-67
2023/03/10 09:10:16;;;;;;;;;;;;;;;9.41;72.68;98496.09;5023118;28;19917;-68
2023/03/10 09:12:41;;;;;;;;;;;;;;;9.46;72.63;98498.72;5025570;28;19923;-64
2023/03/10 09:15:07;;;;;;;;;;;;;;;9.48;72.56;98497.34;5011756;28;19913;-67
2023/03/10 09:17:32;;;;;;;;;;;;;;;9.48;72.63;98500.03;5012386;28;19965;-70
2023/03/10 09:19:57;;;;;;;;;;;;;;;9.48;72.63;98497.34;5011866;28;19917;-68
2023/03/10 09:22:23;;;;;;;;;;;;;;;9.48;72.83;98497.34;5021698;28;20012;-67
2023/03/10 09:24:48;;;;;;;;;;;;;;;9.49;72.85;98487.34;5012276;28;20370;-67
2023/03/10 09:27:13;;;;;;;;;;;;;;;9.48;72.96;98494.63;5012215;28;19918;-67
2023/03/10 09:29:38;;;;;;;;;;;;;;;9.49;72.71;98496.22;5012538;28;19952;-67
2023/03/10 09:32:04;;;;;;;;;;;;;;;9.49;73.15;98490.06;5014631;28;19925;-72
2023/03/10 09:34:29;;;;;;;;;;;;;;;9.50;72.80;98497.06;5032603;28;19913;-67
2023/03/10 09:36:54;;;;;;;;;;;;;;;9.50;72.86;98503.25;5029964;28;20007;-68
2023/03/10 09:39:20;;;;;;;;;;;;;;;9.52;72.89;98503.75;5031252;28;19917;-68
2023/03/10 09:42:03;;;;;;;;;;;;;;;9.51;72.85;98507.53;5031674;28;19913;-69
2023/03/10 09:44:36;;;;;;;;;;;;;;;9.52;72.77;98509.16;5022367;28;20012;-67
2023/03/10 09:47:11;;;;;;;;;;;;;;;9.53;72.65;98509.94;5012442;28;19920;-68
2023/03/10 09:49:37;;;;;;;;;;;;;;;9.53;72.82;98516.13;5012362;28;19913;-68
2023/03/10 09:52:22;;;;;;;;;;;;;;;9.54;72.78;98511.53;5013115;28;19999;-68
2023/03/10 09:54:56;;;;;;;;;;;;;;;9.54;72.70;98517.72;5031180;28;19940;-71
2023/03/10 09:57:22;;;;;;;;;;;;;;;9.56;72.75;98513.94;5015743;28;19967;-70
2023/03/10 09:59:48;;;;;;;;;;;;;;;9.57;72.45;98518.25;5016107;28;19921;-68
2023/03/10 10:02:17;;;;;;;;;;;;;;;9.59;72.53;98521.44;5020849;28;19917;-70
2023/03/10 10:04:43;;;;;;;;;;;;;;;9.60;72.59;98528.44;5033268;28;19920;-68
2023/03/10 10:07:18;;;;;;;;;;;;;;;9.60;72.48;98521.16;5018284;28;19925;-69
2023/03/10 10:09:52;;;;;;;;;;;;;;;9.60;72.31;98531.94;5015640;28;20324;-68
2023/03/10 10:12:22;;;;;;;;;;;;;;;9.64;72.42;98524.06;5018169;28;19936;-69
2023/03/10 10:14:49;;;;;;;;;;;;;;;9.64;72.54;98526.78;5028663;28;20012;-70
2023/03/10 10:17:27;;;;;;;;;;;;;;;9.65;72.45;98529.19;5015175;28;19928;-68
2023/03/10 10:19:52;;;;;;;;;;;;;;;9.66;72.30;98527.28;5013633;28;20408;-68
2023/03/10 10:22:33;;;;;;;;;;;;;;;9.67;72.45;98529.69;5014207;28;19917;-69
2023/03/10 10:25:07;;;;;;;;;;;;;;;9.69;72.42;98521.31;5023662;28;20007;-68
2023/03/10 10:27:33;;;;;;;;;;;;;;;9.70;72.49;98520.22;5027786;28;20392;-68
2023/03/10 10:29:58;;;;;;;;;;;;;;;9.71;72.20;98519.94;5015455;28;19921;-68
2023/03/10 10:32:24;;;;;;;;;;;;;;;9.72;72.33;98510.72;5015152;28;20338;-69
2023/03/10 10:34:49;;;;;;;;;;;;;;;9.73;72.50;98516.94;5020887;28;19976;-68
2023/03/10 10:37:34;;;;;;;;;;;;;;;9.74;72.36;98505.06;5029931;28;20011;-68
2023/03/10 10:40:00;;;;;;;;;;;;;;;9.75;72.40;98512.88;5030735;28;20301;-68
2023/03/10 10:42:27;;;;;;;;;;;;;;;9.77;72.33;98503.69;5014680;28;19928;-67
2023/03/10 10:44:54;;;;;;;;;;;;;;;9.79;72.59;98496.09;5027115;28;19996;-67
2023/03/10 10:47:28;;;;;;;;;;;;;;;9.79;72.47;98493.41;5025028;28;19939;-68
2023/03/10 10:49:54;;;;;;;;;;;;;;;9.81;72.47;98499.31;5026025;28;19918;-68
2023/03/10 10:52:23;;;;;;;;;;;;;;;9.82;72.55;98490.13;5014017;28;19972;-67
2023/03/10 10:54:57;;;;;;;;;;;;;;;9.82;72.41;98488.22;5024748;28;19924;-67
2023/03/10 10:57:34;;;;;;;;;;;;;;;9.82;72.35;98485.53;5026133;28;20004;-68
2023/03/10 11:00:13;;;;;;;;;;;;;;;9.82;72.50;98490.91;5017449;28;20008;-68
2023/03/10 11:02:38;;;;;;;;;;;;;;;9.82;72.54;98490.91;5028838;28;19960;-67
2023/03/10 11:05:15;;;;;;;;;;;;;;;9.83;72.54;98500.63;5017897;28;20373;-67
2023/03/10 11:07:41;;;;;;;;;;;;;;;9.84;72.63;98504.13;5013579;28;19917;-68
2023/03/10 11:10:26;;;;;;;;;;;;;;;9.85;72.63;98505.69;5013628;28;20398;-69
2023/03/10 11:13:05;;;;;;;;;;;;;;;9.85;72.55;98508.41;5021679;28;19913;-68
2023/03/10 11:15:34;;;;;;;;;;;;;;;9.86;72.54;98502.72;5012779;28;19972;-68
2023/03/10 11:18:03;;;;;;;;;;;;;;;9.87;72.67;98496.22;5019871;28;19913;-67
2023/03/10 11:20:28;;;;;;;;;;;;;;;9.88;72.48;98494.34;5011929;28;20011;-68
2023/03/10 11:23:00;;;;;;;;;;;;;;;9.89;72.53;98494.03;5018499;28;20027;-67
2023/03/10 11:25:38;;;;;;;;;;;;;;;9.90;72.58;98484.06;5013009;28;19918;-68
2023/03/10 11:28:03;;;;;;;;;;;;;;;9.90;72.36;98484.88;5020473;28;19921;-67
2023/03/10 11:30:32;;;;;;;;;;;;;;;9.91;72.48;98481.06;5017921;28;19917;-66
2023/03/10 11:32:57;;;;;;;;;;;;;;;9.91;72.44;98480.28;5021057;28;19913;-67
2023/03/10 11:35:23;;;;;;;;;;;;;;;9.92;72.42;98479.19;5026810;28;19925;-68
2023/03/10 11:38:05;;;;;;;;;;;;;;;9.92;72.40;98477.28;5028515;28;19913;-67
2023/03/10 11:40:36;;;;;;;;;;;;;;;9.93;72.57;98480.78;5011126;28;19928;-68
2023/03/10 11:43:04;;;;;;;;;;;;;;;9.94;72.44;98479.69;5018605;28;19928;-67
2023/03/10 11:45:51;;;;;;;;;;;;;;;9.95;72.58;98481.28;5013448;28;19931;-66
2023/03/10 11:48:25;;;;;;;;;;;;;;;9.95;72.76;98478.59;5012431;28;20377;-68
2023/03/10 11:50:57;;;;;;;;;;;;;;;9.97;72.65;98473.69;5012096;28;20408;-68
2023/03/10 11:53:43;;;;;;;;;;;;;;;9.99;72.80;98478.81;5017064;28;19963;-68
2023/03/10 11:56:10;;;;;;;;;;;;;;;10.00;72.55;98477.69;5023278;28;20361;-68
2023/03/10 11:58:35;;;;;;;;;;;;;;;10.01;72.48;98463.13;5011866;28;19921;-69
2023/03/10 12:01:01;;;;;;;;;;;;;;;10.03;72.45;98463.63;5011607;28;19913;-67
2023/03/10 12:03:38;;;;;;;;;;;;;;;10.03;72.55;98466.31;5012554;28;19917;-68
2023/03/10 12:06:06;;;;;;;;;;;;;;;10.05;72.44;98464.94;5019741;28;19991;-69
2023/03/10 12:08:33;;;;;;;;;;;;;;;10.07;72.45;98470.03;5010367;28;19992;-68
2023/03/10 12:11:00;;;;;;;;;;;;;;;10.09;72.57;98467.84;5011946;28;20394;-67
2023/03/10 12:13:27;;;;;;;;;;;;;;;10.10;72.46;98472.16;5011313;28;20540;-69
2023/03/10 12:15:58;;;;;;;;;;;;;;;10.11;72.41;98458.38;5023018;28;19983;-68
2023/03/10 12:18:24;;;;;;;;;;;;;;;10.13;72.43;98449.97;5011537;28;19924;-67
2023/03/10 12:21:10;;;;;;;;;;;;;;;10.15;72.35;98453.19;5010954;28;19921;-67
2023/03/10 12:23:40;;;;;;;;;;;;;;;10.17;72.33;98451.00;5009959;28;19913;-67
2023/03/10 12:26:06;;;;;;;;;;;;;;;10.18;72.32;98439.91;5029544;28;20011;-67
2023/03/10 12:28:32;;;;;;;;;;;;;;;10.20;72.41;98445.00;5015552;28;19960;-68
2023/03/10 12:31:01;;;;;;;;;;;;;;;10.22;72.31;98450.09;5010972;28;19917;-67
2023/03/10 12:33:33;;;;;;;;;;;;;;;10.22;72.40;98453.59;5011238;28;20007;-67
2023/03/10 12:36:08;;;;;;;;;;;;;;;10.24;72.14;98453.31;5024017;28;19968;-67
2023/03/10 12:38:45;;;;;;;;;;;;;;;10.24;72.41;98462.19;5014741;28;19917;-67
2023/03/10 12:41:12;;;;;;;;;;;;;;;10.25;72.32;98463.78;5011664;28;19959;-68
2023/03/10 12:43:37;;;;;;;;;;;;;;;10.26;72.43;98473.50;5011258;28;20007;-66
2023/03/10 12:46:03;;;;;;;;;;;;;;;10.27;72.46;98472.41;5012896;28;20401;-67
2023/03/10 12:48:31;;;;;;;;;;;;;;;10.28;72.49;98470.53;5019096;28;19991;-69
2023/03/10 12:51:00;;;;;;;;;;;;;;;10.28;72.51;98471.34;5012201;28;19947;-68
2023/03/10 12:53:25;;;;;;;;;;;;;;;10.30;72.58;98474.53;5010577;28;19913;-67
2023/03/10 12:56:16;;;;;;;;;;;;;;;10.30;72.52;98476.44;5013415;28;20384;-67